sensor_id;sensor_type;location;lat;lon;timestamp;P1;durP1;ratioP1;P2;durP2;ratioP2
18818;SDS011;9537;45.594;9.294;2024-03-08T00:00:11;14.53;;;11.37;;
18818;SDS011;9537;45.594;9.294;2024-03-08T00:01:13;17.87;;;11.80;;
18818;SDS011;9537;45.594;9.294;2024-03-08T00:02:16;17.37;;;11.67;;
18818;SDS011;9537;45.594;9.294;2024-03-08T00:03:17;14.30;;;11.13;;
18818;SDS011;9537;45.594;9.294;2024-03-08T00:04:18;17.33;;;12.27;;
18818;SDS011;9537;45.594;9.294;2024-03-08T00:05:19;18.67;;;12.97;;
18818;SDS011;9537;45.594;9.294;2024-03-08T00:06:21;17.93;;;12.33;;
18818;SDS011;9537;45.594;9.294;2024-03-08T00:07:22;17.63;;;12.63;;
18818;SDS011;9537;45.594;9.294;2024-03-08T00:08:23;21.33;;;12.83;;
18818;SDS011;9537;45.594;9.294;2024-03-08T00:09:26;16.10;;;12.10;;
18818;SDS011;9537;45.594;9.294;2024-03-08T00:10:28;23.53;;;14.07;;
18818;SDS011;9537;45.594;9.294;2024-03-08T00:11:29;16.60;;;12.33;;
18818;SDS011;9537;45.594;9.294;2024-03-08T00:12:31;18.53;;;13.07;;
18818;SDS011;9537;45.594;9.294;2024-03-08T00:13:32;17.90;;;13.10;;
18818;SDS011;9537;45.594;9.294;2024-03-08T00:14:35;15.70;;;12.80;;
18818;SDS011;9537;45.594;9.294;2024-03-08T00:15:37;16.97;;;11.80;;
18818;SDS011;9537;45.594;9.294;2024-03-08T00:16:38;18.67;;;12.00;;
18818;SDS011;9537;45.594;9.294;2024-03-08T00:17:39;17.23;;;12.50;;
18818;SDS011;9537;45.594;9.294;2024-03-08T00:18:41;20.77;;;12.63;;
18818;SDS011;9537;45.594;9.294;2024-03-08T00:19:42;17.80;;;12.40;;
18818;SDS011;9537;45.594;9.294;2024-03-08T00:20:43;17.43;;;11.83;;
18818;SDS011;9537;45.594;9.294;2024-03-08T00:21:45;15.73;;;12.27;;
18818;SDS011;9537;45.594;9.294;2024-03-08T00:22:46;16.83;;;12.10;;
18818;SDS011;9537;45.594;9.294;2024-03-08T00:23:47;18.27;;;11.97;;
18818;SDS011;9537;45.594;9.294;2024-03-08T00:24:50;16.90;;;11.43;;
18818;SDS011;9537;45.594;9.294;2024-03-08T00:25:51;17.37;;;12.23;;
18818;SDS011;9537;45.594;9.294;2024-03-08T00:26:51;15.37;;;11.47;;
18818;SDS011;9537;45.594;9.294;2024-03-08T00:27:54;18.70;;;11.47;;
18818;SDS011;9537;45.594;9.294;2024-03-08T00:28:56;16.97;;;11.63;;
18818;SDS011;9537;45.594;9.294;2024-03-08T00:29:58;17.27;;;12.00;;
18818;SDS011;9537;45.594;9.294;2024-03-08T00:30:59;18.40;;;11.77;;
18818;SDS011;9537;45.594;9.294;2024-03-08T00:32:00;14.70;;;11.27;;
18818;SDS011;9537;45.594;9.294;2024-03-08T00:33:01;19.97;;;12.77;;
18818;SDS011;9537;45.594;9.294;2024-03-08T00:34:03;20.37;;;12.60;;
18818;SDS011;9537;45.594;9.294;2024-03-08T00:35:04;17.53;;;12.50;;
18818;SDS011;9537;45.594;9.294;2024-03-08T00:36:07;16.40;;;12.37;;
18818;SDS011;9537;45.594;9.294;2024-03-08T00:37:09;18.10;;;12.70;;
18818;SDS011;9537;45.594;9.294;2024-03-08T00:38:10;18.83;;;12.83;;
18818;SDS011;9537;45.594;9.294;2024-03-08T00:39:13;15.53;;;11.47;;
18818;SDS011;9537;45.594;9.294;2024-03-08T00:40:15;19.40;;;13.23;;
18818;SDS011;9537;45.594;9.294;2024-03-08T00:41:17;20.17;;;13.40;;
18818;SDS011;9537;45.594;9.294;2024-03-08T00:42:19;15.67;;;12.40;;
18818;SDS011;9537;45.594;9.294;2024-03-08T00:43:21;17.40;;;13.43;;
18818;SDS011;9537;45.594;9.294;2024-03-08T00:44:22;20.10;;;13.53;;
18818;SDS011;9537;45.594;9.294;2024-03-08T00:45:24;23.07;;;14.07;;
18818;SDS011;9537;45.594;9.294;2024-03-08T00:46:25;21.07;;;13.60;;
18818;SDS011;9537;45.594;9.294;2024-03-08T00:47:28;17.43;;;13.57;;
18818;SDS011;9537;45.594;9.294;2024-03-08T00:48:29;19.73;;;13.33;;
18818;SDS011;9537;45.594;9.294;2024-03-08T00:49:31;18.70;;;13.33;;
18818;SDS011;9537;45.594;9.294;2024-03-08T00:50:32;20.93;;;13.60;;
18818;SDS011;9537;45.594;9.294;2024-03-08T00:51:34;20.90;;;14.80;;
18818;SDS011;9537;45.594;9.294;2024-03-08T00:52:35;20.93;;;14.53;;
18818;SDS011;9537;45.594;9.294;2024-03-08T00:53:35;20.13;;;15.40;;
18818;SDS011;9537;45.594;9.294;2024-03-08T00:54:37;23.73;;;16.07;;
18818;SDS011;9537;45.594;9.294;2024-03-08T00:55:39;22.87;;;15.73;;
18818;SDS011;9537;45.594;9.294;2024-03-08T00:56:41;21.23;;;15.07;;
18818;SDS011;9537;45.594;9.294;2024-03-08T00:57:41;21.57;;;15.20;;
18818;SDS011;9537;45.594;9.294;2024-03-08T00:58:43;19.80;;;14.80;;
18818;SDS011;9537;45.594;9.294;2024-03-08T00:59:44;24.17;;;15.03;;
18818;SDS011;9537;45.594;9.294;2024-03-08T01:00:46;23.13;;;15.60;;
18818;SDS011;9537;45.594;9.294;2024-03-08T01:01:46;22.07;;;15.27;;
18818;SDS011;9537;45.594;9.294;2024-03-08T01:02:48;22.33;;;15.90;;
18818;SDS011;9537;45.594;9.294;2024-03-08T01:03:49;22.50;;;15.53;;
18818;SDS011;9537;45.594;9.294;2024-03-08T01:04:50;25.10;;;15.50;;
18818;SDS011;9537;45.594;9.294;2024-03-08T01:05:51;21.93;;;14.90;;
18818;SDS011;9537;45.594;9.294;2024-03-08T01:06:52;25.53;;;14.97;;
18818;SDS011;9537;45.594;9.294;2024-03-08T01:07:53;23.03;;;15.13;;
18818;SDS011;9537;45.594;9.294;2024-03-08T01:08:55;21.30;;;14.90;;
18818;SDS011;9537;45.594;9.294;2024-03-08T01:09:55;22.90;;;15.30;;
18818;SDS011;9537;45.594;9.294;2024-03-08T01:10:59;24.27;;;15.37;;
18818;SDS011;9537;45.594;9.294;2024-03-08T01:11:59;21.97;;;14.40;;
18818;SDS011;9537;45.594;9.294;2024-03-08T01:13:01;23.83;;;14.67;;
18818;SDS011;9537;45.594;9.294;2024-03-08T01:14:02;22.27;;;15.00;;
18818;SDS011;9537;45.594;9.294;2024-03-08T01:15:02;24.10;;;14.83;;
18818;SDS011;9537;45.594;9.294;2024-03-08T01:16:05;20.60;;;15.50;;
18818;SDS011;9537;45.594;9.294;2024-03-08T01:17:06;22.27;;;15.37;;
18818;SDS011;9537;45.594;9.294;2024-03-08T01:18:07;22.33;;;14.57;;
18818;SDS011;9537;45.594;9.294;2024-03-08T01:19:08;20.50;;;14.73;;
18818;SDS011;9537;45.594;9.294;2024-03-08T01:20:10;21.63;;;14.87;;
18818;SDS011;9537;45.594;9.294;2024-03-08T01:21:12;22.37;;;14.93;;
18818;SDS011;9537;45.594;9.294;2024-03-08T01:22:13;21.47;;;14.93;;
18818;SDS011;9537;45.594;9.294;2024-03-08T01:23:15;22.90;;;15.23;;
18818;SDS011;9537;45.594;9.294;2024-03-08T01:24:16;19.93;;;14.43;;
18818;SDS011;9537;45.594;9.294;2024-03-08T01:25:17;23.60;;;15.03;;
18818;SDS011;9537;45.594;9.294;2024-03-08T01:26:19;18.57;;;13.80;;
18818;SDS011;9537;45.594;9.294;2024-03-08T01:27:21;19.33;;;13.50;;
18818;SDS011;9537;45.594;9.294;2024-03-08T01:28:22;21.47;;;14.77;;
18818;SDS011;9537;45.594;9.294;2024-03-08T01:29:24;18.67;;;13.90;;
18818;SDS011;9537;45.594;9.294;2024-03-08T01:30:25;19.10;;;13.63;;
18818;SDS011;9537;45.594;9.294;2024-03-08T01:31:27;23.43;;;14.67;;
18818;SDS011;9537;45.594;9.294;2024-03-08T01:32:29;21.00;;;14.20;;
18818;SDS011;9537;45.594;9.294;2024-03-08T01:33:30;21.70;;;13.80;;
18818;SDS011;9537;45.594;9.294;2024-03-08T01:34:31;19.47;;;12.83;;
18818;SDS011;9537;45.594;9.294;2024-03-08T01:35:33;20.53;;;13.57;;
18818;SDS011;9537;45.594;9.294;2024-03-08T01:36:34;20.37;;;13.20;;
18818;SDS011;9537;45.594;9.294;2024-03-08T01:37:37;19.03;;;13.27;;
18818;SDS011;9537;45.594;9.294;2024-03-08T01:38:38;19.57;;;13.17;;
18818;SDS011;9537;45.594;9.294;2024-03-08T01:39:39;19.47;;;12.97;;
18818;SDS011;9537;45.594;9.294;2024-03-08T01:40:40;20.10;;;12.30;;
18818;SDS011;9537;45.594;9.294;2024-03-08T01:41:42;23.93;;;14.40;;
18818;SDS011;9537;45.594;9.294;2024-03-08T01:42:44;22.03;;;14.43;;
18818;SDS011;9537;45.594;9.294;2024-03-08T01:43:45;17.50;;;12.77;;
18818;SDS011;9537;45.594;9.294;2024-03-08T01:44:46;21.70;;;13.60;;
18818;SDS011;9537;45.594;9.294;2024-03-08T01:45:47;22.47;;;13.17;;
18818;SDS011;9537;45.594;9.294;2024-03-08T01:46:48;20.43;;;13.43;;
18818;SDS011;9537;45.594;9.294;2024-03-08T01:47:51;17.53;;;12.20;;
18818;SDS011;9537;45.594;9.294;2024-03-08T01:48:52;20.70;;;12.90;;
18818;SDS011;9537;45.594;9.294;2024-03-08T01:49:53;17.87;;;12.97;;
18818;SDS011;9537;45.594;9.294;2024-03-08T01:50:55;21.17;;;12.73;;
18818;SDS011;9537;45.594;9.294;2024-03-08T01:51:56;17.27;;;12.93;;
18818;SDS011;9537;45.594;9.294;2024-03-08T01:52:58;21.90;;;13.17;;
18818;SDS011;9537;45.594;9.294;2024-03-08T01:54:00;21.20;;;13.67;;
18818;SDS011;9537;45.594;9.294;2024-03-08T01:55:03;22.37;;;13.20;;
18818;SDS011;9537;45.594;9.294;2024-03-08T01:56:07;16.97;;;12.80;;
18818;SDS011;9537;45.594;9.294;2024-03-08T01:57:10;16.47;;;12.23;;
18818;SDS011;9537;45.594;9.294;2024-03-08T01:58:12;18.70;;;12.60;;
18818;SDS011;9537;45.594;9.294;2024-03-08T01:59:15;17.53;;;11.90;;
18818;SDS011;9537;45.594;9.294;2024-03-08T02:00:17;18.00;;;12.47;;
18818;SDS011;9537;45.594;9.294;2024-03-08T02:01:20;17.27;;;11.97;;
18818;SDS011;9537;45.594;9.294;2024-03-08T02:02:22;18.40;;;13.10;;
18818;SDS011;9537;45.594;9.294;2024-03-08T02:03:23;17.40;;;12.80;;
18818;SDS011;9537;45.594;9.294;2024-03-08T02:04:25;16.33;;;11.53;;
18818;SDS011;9537;45.594;9.294;2024-03-08T02:05:26;20.53;;;13.03;;
18818;SDS011;9537;45.594;9.294;2024-03-08T02:06:27;19.17;;;11.97;;
18818;SDS011;9537;45.594;9.294;2024-03-08T02:07:28;19.83;;;12.43;;
18818;SDS011;9537;45.594;9.294;2024-03-08T02:08:30;17.43;;;12.90;;
18818;SDS011;9537;45.594;9.294;2024-03-08T02:09:31;16.40;;;11.57;;
18818;SDS011;9537;45.594;9.294;2024-03-08T02:10:32;20.43;;;12.73;;
18818;SDS011;9537;45.594;9.294;2024-03-08T02:11:34;17.73;;;12.47;;
18818;SDS011;9537;45.594;9.294;2024-03-08T02:12:37;17.23;;;11.83;;
18818;SDS011;9537;45.594;9.294;2024-03-08T02:13:39;17.43;;;12.13;;
18818;SDS011;9537;45.594;9.294;2024-03-08T02:14:40;22.37;;;12.40;;
18818;SDS011;9537;45.594;9.294;2024-03-08T02:15:52;20.67;;;12.83;;
18818;SDS011;9537;45.594;9.294;2024-03-08T02:16:53;18.67;;;12.60;;
18818;SDS011;9537;45.594;9.294;2024-03-08T02:17:57;23.00;;;12.23;;
18818;SDS011;9537;45.594;9.294;2024-03-08T02:18:58;16.73;;;12.20;;
18818;SDS011;9537;45.594;9.294;2024-03-08T02:20:00;19.20;;;11.43;;
18818;SDS011;9537;45.594;9.294;2024-03-08T02:21:03;16.57;;;12.43;;
18818;SDS011;9537;45.594;9.294;2024-03-08T02:22:05;16.90;;;11.93;;
18818;SDS011;9537;45.594;9.294;2024-03-08T02:23:06;18.13;;;12.67;;
18818;SDS011;9537;45.594;9.294;2024-03-08T02:24:08;18.13;;;12.33;;
18818;SDS011;9537;45.594;9.294;2024-03-08T02:25:09;17.17;;;11.67;;
18818;SDS011;9537;45.594;9.294;2024-03-08T02:26:11;18.37;;;12.50;;
18818;SDS011;9537;45.594;9.294;2024-03-08T02:27:11;18.03;;;12.10;;
18818;SDS011;9537;45.594;9.294;2024-03-08T02:28:13;16.97;;;12.07;;
18818;SDS011;9537;45.594;9.294;2024-03-08T02:29:14;19.40;;;12.67;;
18818;SDS011;9537;45.594;9.294;2024-03-08T02:30:16;19.87;;;13.40;;
18818;SDS011;9537;45.594;9.294;2024-03-08T02:31:17;18.80;;;12.97;;
18818;SDS011;9537;45.594;9.294;2024-03-08T02:32:19;16.93;;;12.33;;
18818;SDS011;9537;45.594;9.294;2024-03-08T02:33:20;16.13;;;12.77;;
18818;SDS011;9537;45.594;9.294;2024-03-08T02:34:21;21.03;;;13.47;;
18818;SDS011;9537;45.594;9.294;2024-03-08T02:35:22;21.67;;;12.63;;
18818;SDS011;9537;45.594;9.294;2024-03-08T02:36:25;18.83;;;12.13;;
18818;SDS011;9537;45.594;9.294;2024-03-08T02:37:26;19.73;;;12.73;;
18818;SDS011;9537;45.594;9.294;2024-03-08T02:38:28;22.53;;;13.93;;
18818;SDS011;9537;45.594;9.294;2024-03-08T02:39:29;21.47;;;13.93;;
18818;SDS011;9537;45.594;9.294;2024-03-08T02:40:32;18.03;;;12.53;;
18818;SDS011;9537;45.594;9.294;2024-03-08T02:41:32;19.77;;;13.20;;
18818;SDS011;9537;45.594;9.294;2024-03-08T02:42:34;18.60;;;12.70;;
18818;SDS011;9537;45.594;9.294;2024-03-08T02:43:35;17.10;;;11.97;;
18818;SDS011;9537;45.594;9.294;2024-03-08T02:44:36;18.73;;;12.53;;
18818;SDS011;9537;45.594;9.294;2024-03-08T02:45:37;20.20;;;12.83;;
18818;SDS011;9537;45.594;9.294;2024-03-08T02:46:38;16.57;;;12.20;;
18818;SDS011;9537;45.594;9.294;2024-03-08T02:47:40;19.33;;;12.97;;
18818;SDS011;9537;45.594;9.294;2024-03-08T02:48:41;19.40;;;12.83;;
18818;SDS011;9537;45.594;9.294;2024-03-08T02:49:42;21.10;;;12.70;;
18818;SDS011;9537;45.594;9.294;2024-03-08T02:50:43;17.50;;;12.33;;
18818;SDS011;9537;45.594;9.294;2024-03-08T02:51:47;19.87;;;13.13;;
18818;SDS011;9537;45.594;9.294;2024-03-08T02:52:47;24.20;;;12.70;;
18818;SDS011;9537;45.594;9.294;2024-03-08T02:53:49;17.60;;;12.10;;
18818;SDS011;9537;45.594;9.294;2024-03-08T02:54:51;20.53;;;12.53;;
18818;SDS011;9537;45.594;9.294;2024-03-08T02:55:53;17.87;;;12.57;;
18818;SDS011;9537;45.594;9.294;2024-03-08T02:56:55;19.00;;;11.63;;
18818;SDS011;9537;45.594;9.294;2024-03-08T02:57:56;22.43;;;12.57;;
18818;SDS011;9537;45.594;9.294;2024-03-08T02:58:59;17.73;;;12.03;;
18818;SDS011;9537;45.594;9.294;2024-03-08T02:59:59;20.77;;;13.07;;
18818;SDS011;9537;45.594;9.294;2024-03-08T03:01:01;19.97;;;12.37;;
18818;SDS011;9537;45.594;9.294;2024-03-08T03:02:02;18.57;;;12.00;;
18818;SDS011;9537;45.594;9.294;2024-03-08T03:03:04;20.77;;;13.20;;
18818;SDS011;9537;45.594;9.294;2024-03-08T03:04:05;21.03;;;13.20;;
18818;SDS011;9537;45.594;9.294;2024-03-08T03:05:07;18.80;;;12.47;;
18818;SDS011;9537;45.594;9.294;2024-03-08T03:06:09;19.30;;;12.83;;
18818;SDS011;9537;45.594;9.294;2024-03-08T03:07:13;20.73;;;12.63;;
18818;SDS011;9537;45.594;9.294;2024-03-08T03:08:14;18.50;;;12.90;;
18818;SDS011;9537;45.594;9.294;2024-03-08T03:09:16;19.53;;;13.27;;
18818;SDS011;9537;45.594;9.294;2024-03-08T03:10:23;17.87;;;12.20;;
18818;SDS011;9537;45.594;9.294;2024-03-08T03:11:24;17.47;;;12.47;;
18818;SDS011;9537;45.594;9.294;2024-03-08T03:12:25;17.07;;;11.47;;
18818;SDS011;9537;45.594;9.294;2024-03-08T03:13:26;18.60;;;12.97;;
18818;SDS011;9537;45.594;9.294;2024-03-08T03:14:29;17.73;;;12.07;;
18818;SDS011;9537;45.594;9.294;2024-03-08T03:15:30;17.50;;;12.70;;
18818;SDS011;9537;45.594;9.294;2024-03-08T03:16:32;19.40;;;12.57;;
18818;SDS011;9537;45.594;9.294;2024-03-08T03:17:32;18.87;;;12.50;;
18818;SDS011;9537;45.594;9.294;2024-03-08T03:18:34;22.87;;;12.90;;
18818;SDS011;9537;45.594;9.294;2024-03-08T03:19:34;18.90;;;12.57;;
18818;SDS011;9537;45.594;9.294;2024-03-08T03:20:36;21.53;;;13.27;;
18818;SDS011;9537;45.594;9.294;2024-03-08T03:21:40;19.57;;;12.80;;
18818;SDS011;9537;45.594;9.294;2024-03-08T03:22:44;22.63;;;12.90;;
18818;SDS011;9537;45.594;9.294;2024-03-08T03:23:47;18.73;;;12.67;;
18818;SDS011;9537;45.594;9.294;2024-03-08T03:24:48;20.43;;;12.77;;
18818;SDS011;9537;45.594;9.294;2024-03-08T03:25:51;22.77;;;12.93;;
18818;SDS011;9537;45.594;9.294;2024-03-08T03:26:52;18.23;;;12.60;;
18818;SDS011;9537;45.594;9.294;2024-03-08T03:27:55;20.83;;;12.80;;
18818;SDS011;9537;45.594;9.294;2024-03-08T03:28:56;18.97;;;13.20;;
18818;SDS011;9537;45.594;9.294;2024-03-08T03:30:00;18.97;;;13.07;;
18818;SDS011;9537;45.594;9.294;2024-03-08T03:31:20;18.23;;;12.03;;
18818;SDS011;9537;45.594;9.294;2024-03-08T03:32:24;20.53;;;13.90;;
18818;SDS011;9537;45.594;9.294;2024-03-08T03:33:24;20.93;;;13.10;;
18818;SDS011;9537;45.594;9.294;2024-03-08T03:34:25;17.73;;;13.30;;
18818;SDS011;9537;45.594;9.294;2024-03-08T03:35:27;19.40;;;11.80;;
18818;SDS011;9537;45.594;9.294;2024-03-08T03:36:28;22.97;;;13.50;;
18818;SDS011;9537;45.594;9.294;2024-03-08T03:37:29;18.53;;;12.67;;
18818;SDS011;9537;45.594;9.294;2024-03-08T03:38:31;18.10;;;12.70;;
18818;SDS011;9537;45.594;9.294;2024-03-08T03:39:33;21.67;;;13.47;;
18818;SDS011;9537;45.594;9.294;2024-03-08T03:40:40;20.83;;;12.43;;
18818;SDS011;9537;45.594;9.294;2024-03-08T03:41:41;18.93;;;12.07;;
18818;SDS011;9537;45.594;9.294;2024-03-08T03:42:45;19.33;;;12.93;;
18818;SDS011;9537;45.594;9.294;2024-03-08T03:43:45;21.07;;;12.33;;
18818;SDS011;9537;45.594;9.294;2024-03-08T03:44:49;15.50;;;11.63;;
18818;SDS011;9537;45.594;9.294;2024-03-08T03:45:50;19.27;;;13.23;;
18818;SDS011;9537;45.594;9.294;2024-03-08T03:46:52;20.13;;;12.77;;
18818;SDS011;9537;45.594;9.294;2024-03-08T03:47:52;18.97;;;13.47;;
18818;SDS011;9537;45.594;9.294;2024-03-08T03:48:54;19.57;;;12.63;;
18818;SDS011;9537;45.594;9.294;2024-03-08T03:49:55;19.53;;;13.73;;
18818;SDS011;9537;45.594;9.294;2024-03-08T03:51:02;18.40;;;13.20;;
18818;SDS011;9537;45.594;9.294;2024-03-08T03:52:02;18.97;;;11.80;;
18818;SDS011;9537;45.594;9.294;2024-03-08T03:53:04;21.77;;;13.27;;
18818;SDS011;9537;45.594;9.294;2024-03-08T03:54:09;18.27;;;11.83;;
18818;SDS011;9537;45.594;9.294;2024-03-08T03:55:11;18.17;;;12.97;;
18818;SDS011;9537;45.594;9.294;2024-03-08T03:56:12;21.63;;;13.13;;
18818;SDS011;9537;45.594;9.294;2024-03-08T03:57:13;19.23;;;12.70;;
18818;SDS011;9537;45.594;9.294;2024-03-08T03:58:14;20.00;;;13.60;;
18818;SDS011;9537;45.594;9.294;2024-03-08T03:59:15;19.60;;;13.47;;
18818;SDS011;9537;45.594;9.294;2024-03-08T04:00:17;20.17;;;13.00;;
18818;SDS011;9537;45.594;9.294;2024-03-08T04:01:19;22.33;;;13.93;;
18818;SDS011;9537;45.594;9.294;2024-03-08T04:02:20;21.43;;;13.53;;
18818;SDS011;9537;45.594;9.294;2024-03-08T04:03:21;20.70;;;13.30;;
18818;SDS011;9537;45.594;9.294;2024-03-08T04:04:22;22.70;;;14.00;;
18818;SDS011;9537;45.594;9.294;2024-03-08T04:05:24;18.30;;;12.67;;
18818;SDS011;9537;45.594;9.294;2024-03-08T04:06:25;19.37;;;13.30;;
18818;SDS011;9537;45.594;9.294;2024-03-08T04:07:27;20.67;;;12.43;;
18818;SDS011;9537;45.594;9.294;2024-03-08T04:08:27;20.57;;;13.13;;
18818;SDS011;9537;45.594;9.294;2024-03-08T04:09:30;21.73;;;13.73;;
18818;SDS011;9537;45.594;9.294;2024-03-08T04:10:31;19.43;;;12.93;;
18818;SDS011;9537;45.594;9.294;2024-03-08T04:11:33;21.40;;;13.30;;
18818;SDS011;9537;45.594;9.294;2024-03-08T04:12:33;21.20;;;13.47;;
18818;SDS011;9537;45.594;9.294;2024-03-08T04:13:35;20.87;;;13.33;;
18818;SDS011;9537;45.594;9.294;2024-03-08T04:14:36;22.70;;;14.23;;
18818;SDS011;9537;45.594;9.294;2024-03-08T04:15:40;20.67;;;13.97;;
18818;SDS011;9537;45.594;9.294;2024-03-08T04:16:40;21.50;;;13.63;;
18818;SDS011;9537;45.594;9.294;2024-03-08T04:17:42;22.67;;;13.93;;
18818;SDS011;9537;45.594;9.294;2024-03-08T04:18:43;19.77;;;13.17;;
18818;SDS011;9537;45.594;9.294;2024-03-08T04:19:44;22.87;;;14.53;;
18818;SDS011;9537;45.594;9.294;2024-03-08T04:20:45;21.27;;;14.33;;
18818;SDS011;9537;45.594;9.294;2024-03-08T04:21:47;21.27;;;12.73;;
18818;SDS011;9537;45.594;9.294;2024-03-08T04:22:47;19.90;;;13.63;;
18818;SDS011;9537;45.594;9.294;2024-03-08T04:23:49;18.80;;;12.53;;
18818;SDS011;9537;45.594;9.294;2024-03-08T04:24:51;20.03;;;12.77;;
18818;SDS011;9537;45.594;9.294;2024-03-08T04:25:53;18.07;;;11.73;;
18818;SDS011;9537;45.594;9.294;2024-03-08T04:26:53;20.03;;;12.17;;
18818;SDS011;9537;45.594;9.294;2024-03-08T04:27:55;21.37;;;13.23;;
18818;SDS011;9537;45.594;9.294;2024-03-08T04:28:56;18.13;;;11.73;;
18818;SDS011;9537;45.594;9.294;2024-03-08T04:29:58;20.43;;;13.53;;
18818;SDS011;9537;45.594;9.294;2024-03-08T04:30:59;20.20;;;12.77;;
18818;SDS011;9537;45.594;9.294;2024-03-08T04:32:02;17.67;;;13.17;;
18818;SDS011;9537;45.594;9.294;2024-03-08T04:33:04;17.60;;;12.20;;
18818;SDS011;9537;45.594;9.294;2024-03-08T04:34:06;20.27;;;13.83;;
18818;SDS011;9537;45.594;9.294;2024-03-08T04:35:07;17.47;;;12.07;;
18818;SDS011;9537;45.594;9.294;2024-03-08T04:36:09;20.03;;;12.87;;
18818;SDS011;9537;45.594;9.294;2024-03-08T04:37:13;19.90;;;12.23;;
18818;SDS011;9537;45.594;9.294;2024-03-08T04:38:16;21.63;;;12.90;;
18818;SDS011;9537;45.594;9.294;2024-03-08T04:39:17;19.90;;;13.57;;
18818;SDS011;9537;45.594;9.294;2024-03-08T04:40:20;19.10;;;13.20;;
18818;SDS011;9537;45.594;9.294;2024-03-08T04:41:21;19.70;;;13.87;;
18818;SDS011;9537;45.594;9.294;2024-03-08T04:42:23;19.20;;;13.93;;
18818;SDS011;9537;45.594;9.294;2024-03-08T04:43:25;21.03;;;13.77;;
18818;SDS011;9537;45.594;9.294;2024-03-08T04:44:30;19.70;;;13.40;;
18818;SDS011;9537;45.594;9.294;2024-03-08T04:45:31;19.07;;;13.33;;
18818;SDS011;9537;45.594;9.294;2024-03-08T04:46:33;24.57;;;15.30;;
18818;SDS011;9537;45.594;9.294;2024-03-08T04:47:35;20.43;;;13.47;;
18818;SDS011;9537;45.594;9.294;2024-03-08T04:48:37;23.70;;;14.43;;
18818;SDS011;9537;45.594;9.294;2024-03-08T04:49:37;22.70;;;13.67;;
18818;SDS011;9537;45.594;9.294;2024-03-08T04:50:39;20.63;;;13.00;;
18818;SDS011;9537;45.594;9.294;2024-03-08T04:51:40;21.33;;;13.43;;
18818;SDS011;9537;45.594;9.294;2024-03-08T04:52:42;21.03;;;13.50;;
18818;SDS011;9537;45.594;9.294;2024-03-08T04:53:42;20.10;;;13.00;;
18818;SDS011;9537;45.594;9.294;2024-03-08T04:54:44;20.53;;;12.87;;
18818;SDS011;9537;45.594;9.294;2024-03-08T04:55:46;24.70;;;14.27;;
18818;SDS011;9537;45.594;9.294;2024-03-08T04:56:48;20.13;;;13.00;;
18818;SDS011;9537;45.594;9.294;2024-03-08T04:57:48;18.97;;;12.47;;
18818;SDS011;9537;45.594;9.294;2024-03-08T04:58:50;19.30;;;12.97;;
18818;SDS011;9537;45.594;9.294;2024-03-08T04:59:51;17.73;;;12.30;;
18818;SDS011;9537;45.594;9.294;2024-03-08T05:00:53;21.23;;;12.10;;
18818;SDS011;9537;45.594;9.294;2024-03-08T05:01:53;18.10;;;12.40;;
18818;SDS011;9537;45.594;9.294;2024-03-08T05:02:56;19.10;;;11.80;;
18818;SDS011;9537;45.594;9.294;2024-03-08T05:03:56;18.17;;;12.13;;
18818;SDS011;9537;45.594;9.294;2024-03-08T05:04:58;19.77;;;12.07;;
18818;SDS011;9537;45.594;9.294;2024-03-08T05:05:59;19.37;;;12.43;;
18818;SDS011;9537;45.594;9.294;2024-03-08T05:07:01;17.57;;;11.90;;
18818;SDS011;9537;45.594;9.294;2024-03-08T05:08:02;18.37;;;12.17;;
18818;SDS011;9537;45.594;9.294;2024-03-08T05:09:05;19.57;;;11.53;;
18818;SDS011;9537;45.594;9.294;2024-03-08T05:10:13;21.33;;;13.80;;
18818;SDS011;9537;45.594;9.294;2024-03-08T05:11:19;19.63;;;12.27;;
18818;SDS011;9537;45.594;9.294;2024-03-08T05:12:20;18.13;;;12.67;;
18818;SDS011;9537;45.594;9.294;2024-03-08T05:13:22;23.00;;;14.20;;
18818;SDS011;9537;45.594;9.294;2024-03-08T05:14:23;23.13;;;14.00;;
18818;SDS011;9537;45.594;9.294;2024-03-08T05:15:25;23.13;;;13.50;;
18818;SDS011;9537;45.594;9.294;2024-03-08T05:16:25;20.77;;;12.80;;
18818;SDS011;9537;45.594;9.294;2024-03-08T05:17:27;20.83;;;13.93;;
18818;SDS011;9537;45.594;9.294;2024-03-08T05:18:28;21.10;;;12.90;;
18818;SDS011;9537;45.594;9.294;2024-03-08T05:19:32;18.83;;;12.97;;
18818;SDS011;9537;45.594;9.294;2024-03-08T05:20:32;17.77;;;12.90;;
18818;SDS011;9537;45.594;9.294;2024-03-08T05:21:37;20.77;;;13.10;;
18818;SDS011;9537;45.594;9.294;2024-03-08T05:22:37;20.10;;;13.33;;
18818;SDS011;9537;45.594;9.294;2024-03-08T05:23:40;19.53;;;12.97;;
18818;SDS011;9537;45.594;9.294;2024-03-08T05:24:41;20.83;;;12.37;;
18818;SDS011;9537;45.594;9.294;2024-03-08T05:25:42;20.93;;;13.03;;
18818;SDS011;9537;45.594;9.294;2024-03-08T05:26:45;18.37;;;11.90;;
18818;SDS011;9537;45.594;9.294;2024-03-08T05:27:47;21.80;;;13.77;;
18818;SDS011;9537;45.594;9.294;2024-03-08T05:28:48;22.07;;;13.60;;
18818;SDS011;9537;45.594;9.294;2024-03-08T05:29:48;22.90;;;13.47;;
18818;SDS011;9537;45.594;9.294;2024-03-08T05:30:50;24.00;;;13.77;;
18818;SDS011;9537;45.594;9.294;2024-03-08T05:31:51;21.30;;;13.47;;
18818;SDS011;9537;45.594;9.294;2024-03-08T05:32:53;20.70;;;13.90;;
18818;SDS011;9537;45.594;9.294;2024-03-08T05:33:54;21.33;;;13.93;;
18818;SDS011;9537;45.594;9.294;2024-03-08T05:34:56;22.77;;;14.17;;
18818;SDS011;9537;45.594;9.294;2024-03-08T05:35:57;20.90;;;13.53;;
18818;SDS011;9537;45.594;9.294;2024-03-08T05:36:57;21.23;;;14.33;;
18818;SDS011;9537;45.594;9.294;2024-03-08T05:38:00;20.63;;;13.47;;
18818;SDS011;9537;45.594;9.294;2024-03-08T05:39:01;22.20;;;14.03;;
18818;SDS011;9537;45.594;9.294;2024-03-08T05:40:06;24.07;;;14.13;;
18818;SDS011;9537;45.594;9.294;2024-03-08T05:41:09;19.00;;;13.53;;
18818;SDS011;9537;45.594;9.294;2024-03-08T05:42:13;21.40;;;13.40;;
18818;SDS011;9537;45.594;9.294;2024-03-08T05:43:14;18.27;;;12.63;;
18818;SDS011;9537;45.594;9.294;2024-03-08T05:44:17;22.53;;;13.80;;
18818;SDS011;9537;45.594;9.294;2024-03-08T05:45:18;21.50;;;13.13;;
18818;SDS011;9537;45.594;9.294;2024-03-08T05:46:21;20.93;;;13.67;;
18818;SDS011;9537;45.594;9.294;2024-03-08T05:47:22;21.23;;;14.20;;
18818;SDS011;9537;45.594;9.294;2024-03-08T05:48:24;20.97;;;13.87;;
18818;SDS011;9537;45.594;9.294;2024-03-08T05:49:25;23.47;;;14.33;;
18818;SDS011;9537;45.594;9.294;2024-03-08T05:50:27;18.70;;;13.27;;
18818;SDS011;9537;45.594;9.294;2024-03-08T05:51:27;20.63;;;13.90;;
18818;SDS011;9537;45.594;9.294;2024-03-08T05:52:29;23.60;;;14.37;;
18818;SDS011;9537;45.594;9.294;2024-03-08T05:53:29;21.77;;;14.67;;
18818;SDS011;9537;45.594;9.294;2024-03-08T05:54:32;21.20;;;13.97;;
18818;SDS011;9537;45.594;9.294;2024-03-08T05:55:33;19.90;;;13.67;;
18818;SDS011;9537;45.594;9.294;2024-03-08T05:56:35;23.17;;;14.47;;
18818;SDS011;9537;45.594;9.294;2024-03-08T05:57:38;20.80;;;13.07;;
18818;SDS011;9537;45.594;9.294;2024-03-08T05:58:40;21.03;;;14.70;;
18818;SDS011;9537;45.594;9.294;2024-03-08T05:59:41;22.87;;;13.93;;
18818;SDS011;9537;45.594;9.294;2024-03-08T06:00:42;20.33;;;13.60;;
18818;SDS011;9537;45.594;9.294;2024-03-08T06:01:46;20.47;;;14.17;;
18818;SDS011;9537;45.594;9.294;2024-03-08T06:02:47;21.57;;;13.50;;
18818;SDS011;9537;45.594;9.294;2024-03-08T06:03:48;21.57;;;13.93;;
18818;SDS011;9537;45.594;9.294;2024-03-08T06:04:49;25.10;;;13.33;;
18818;SDS011;9537;45.594;9.294;2024-03-08T06:05:51;20.57;;;14.50;;